Time;durP1;ratioP1;P1;durP2;ratioP2;P2;SDS_P1;SDS_P2;PMS_P1;PMS_P2;Temp;Humidity;BMP_temperature;BMP_pressure;BME280_temperature;BME280_humidity;BME280_pressure;Samples;Min_cycle;Max_cycle;Signal;HPM_P1;HPM_P2
2022/10/28 00:02:05;;;;;;;;;7.33;6.33;;;;;;;;5070298;28;47321;-69
2022/10/28 00:04:30;;;;;;;;;7.67;7.67;;;;;;;;5074578;28;45368;-68
2022/10/28 00:06:56;;;;;;;;;8.33;8.33;;;;;;;;5075180;27;45751;-70
2022/10/28 00:09:21;;;;;;;;;11.33;7.00;;;;;;;;5074638;28;45664;-68
2022/10/28 00:11:46;;;;;;;;;11.33;7.00;;;;;;;;5074614;28;45591;-69
2022/10/28 00:14:12;;;;;;;;;8.33;6.33;;;;;;;;5075084;28;45540;-67
2022/10/28 00:16:37;;;;;;;;;7.67;7.67;;;;;;;;5075297;28;45815;-69
2022/10/28 00:19:04;;;;;;;;;8.00;5.67;;;;;;;;5075130;28;45480;-66
2022/10/28 00:21:31;;;;;;;;;7.33;6.33;;;;;;;;5074696;28;45428;-67
2022/10/28 00:23:56;;;;;;;;;10.67;7.00;;;;;;;;5075066;28;45425;-66
2022/10/28 00:26:23;;;;;;;;;7.33;7.33;;;;;;;;5074948;28;45408;-69
2022/10/28 00:28:52;;;;;;;;;8.00;6.67;;;;;;;;5075213;28;46005;-68
2022/10/28 00:31:18;;;;;;;;;10.33;7.00;;;;;;;;5074813;28;45663;-68
2022/10/28 00:33:43;;;;;;;;;11.00;9.00;;;;;;;;5074990;28;45726;-67
2022/10/28 00:36:30;;;;;;;;;12.00;7.33;;;;;;;;5075133;28;45352;-67
2022/10/28 00:38:56;;;;;;;;;8.67;8.67;;;;;;;;5074350;28;45440;-68
2022/10/28 00:41:23;;;;;;;;;9.67;8.33;;;;;;;;5074034;28;45772;-69
2022/10/28 00:43:49;;;;;;;;;8.33;7.33;;;;;;;;5056195;28;45791;-72
2022/10/28 00:46:20;;;;;;;;;8.33;7.33;;;;;;;;5074725;28;45356;-67
2022/10/28 00:48:47;;;;;;;;;13.33;8.33;;;;;;;;5073944;28;45443;-68
2022/10/28 00:51:14;;;;;;;;;9.67;8.67;;;;;;;;5074348;28;46492;-67
2022/10/28 00:53:40;;;;;;;;;10.33;8.00;;;;;;;;5072766;28;45628;-68
2022/10/28 00:56:07;;;;;;;;;10.67;8.33;;;;;;;;5069288;28;45669;-66
2022/10/28 00:58:33;;;;;;;;;11.00;8.00;;;;;;;;5036344;28;45890;-70
2022/10/28 01:00:58;;;;;;;;;10.00;7.00;;;;;;;;5064566;28;45641;-67
2022/10/28 01:03:24;;;;;;;;;10.67;7.00;;;;;;;;5074124;28;45443;-68
2022/10/28 01:05:50;;;;;;;;;5.00;4.33;;;;;;;;5074521;28;45616;-67
2022/10/28 01:08:16;;;;;;;;;19.00;16.67;;;;;;;;5074263;28;45716;-68
2022/10/28 01:10:57;;;;;;;;;9.33;8.33;;;;;;;;5074195;28;45661;-66
2022/10/28 01:13:36;;;;;;;;;11.00;10.00;;;;;;;;5073923;28;45341;-69
2022/10/28 01:16:09;;;;;;;;;8.67;7.33;;;;;;;;5055722;28;45796;-68
2022/10/28 01:18:57;;;;;;;;;13.00;8.67;;;;;;;;5055599;28;46519;-67
2022/10/28 01:21:49;;;;;;;;;8.67;8.67;;;;;;;;5073793;28;45384;-68
2022/10/28 01:24:32;;;;;;;;;12.00;9.33;;;;;;;;5074053;28;45835;-67
2022/10/28 01:27:06;;;;;;;;;10.00;8.00;;;;;;;;5074241;27;45616;-67
2022/10/28 01:29:38;;;;;;;;;7.67;7.00;;;;;;;;5073697;28;45995;-69
2022/10/28 01:32:09;;;;;;;;;11.33;9.67;;;;;;;;5073941;28;45405;-69
2022/10/28 01:34:40;;;;;;;;;7.33;7.33;;;;;;;;5073757;28;45755;-68
2022/10/28 01:37:08;;;;;;;;;7.00;7.00;;;;;;;;5074236;28;45343;-67
2022/10/28 01:39:34;;;;;;;;;7.00;7.00;;;;;;;;5073717;28;45681;-67
2022/10/28 01:42:08;;;;;;;;;10.33;7.67;;;;;;;;5072938;28;45708;-67
2022/10/28 01:44:40;;;;;;;;;9.33;9.00;;;;;;;;5055412;28;45611;-70
2022/10/28 01:47:11;;;;;;;;;9.67;7.67;;;;;;;;5073073;28;45425;-67
2022/10/28 01:49:38;;;;;;;;;12.00;7.67;;;;;;;;5054740;28;45697;-68
2022/10/28 01:52:05;;;;;;;;;8.33;6.00;;;;;;;;5070541;28;46420;-67
2022/10/28 01:54:32;;;;;;;;;8.33;7.00;;;;;;;;5070019;28;45243;-68
2022/10/28 01:56:59;;;;;;;;;7.00;7.00;;;;;;;;5073148;28;45680;-66
2022/10/28 01:59:26;;;;;;;;;8.00;8.00;;;;;;;;5073377;28;45893;-66
2022/10/28 02:01:52;;;;;;;;;10.67;7.67;;;;;;;;5075384;28;46227;-74
2022/10/28 02:04:19;;;;;;;;;11.00;8.67;;;;;;;;5076135;28;45254;-74
2022/10/28 02:06:46;;;;;;;;;7.33;7.00;;;;;;;;5057123;28;45644;-79
2022/10/28 02:09:11;;;;;;;;;8.33;7.00;;;;;;;;5074748;28;45708;-74
2022/10/28 02:11:48;;;;;;;;;7.00;5.33;;;;;;;;5074605;28;46023;-74
2022/10/28 02:14:22;;;;;;;;;16.00;7.50;;;;;;;;5074859;28;45446;-75
2022/10/28 02:16:50;;;;;;;;;8.33;8.33;;;;;;;;5065447;28;45399;-74
2022/10/28 02:19:34;;;;;;;;;11.00;7.00;;;;;;;;5076293;28;45438;-73
2022/10/28 02:22:18;;;;;;;;;10.33;7.00;;;;;;;;5075504;28;45728;-75
2022/10/28 02:24:50;;;;;;;;;8.67;5.33;;;;;;;;5075741;28;45349;-74
2022/10/28 02:27:34;;;;;;;;;7.00;6.00;;;;;;;;5075789;27;45664;-74
2022/10/28 02:29:59;;;;;;;;;9.00;6.00;;;;;;;;5075256;28;45584;-76
2022/10/28 02:32:27;;;;;;;;;13.00;7.00;;;;;;;;5069204;28;45530;-75
2022/10/28 02:34:55;;;;;;;;;9.67;7.00;;;;;;;;5074060;28;45565;-75
2022/10/28 02:37:23;;;;;;;;;7.67;7.67;;;;;;;;5071086;28;45803;-75
2022/10/28 02:39:51;;;;;;;;;10.67;6.00;;;;;;;;5074828;28;45517;-74
2022/10/28 02:42:19;;;;;;;;;10.33;7.00;;;;;;;;5074739;28;45803;-74
2022/10/28 02:44:48;;;;;;;;;8.33;8.33;;;;;;;;5074481;28;45431;-74
2022/10/28 02:47:18;;;;;;;;;9.00;7.33;;;;;;;;5074565;28;45484;-74
2022/10/28 02:49:46;;;;;;;;;7.67;6.33;;;;;;;;5055747;28;45948;-75
2022/10/28 02:52:12;;;;;;;;;6.00;6.00;;;;;;;;5076113;28;45682;-73
2022/10/28 02:54:45;;;;;;;;;10.00;6.00;;;;;;;;5077041;28;45305;-74
2022/10/28 02:57:10;;;;;;;;;7.00;7.00;;;;;;;;5081034;28;45422;-74
2022/10/28 02:59:36;;;;;;;;;8.00;6.67;;;;;;;;5077332;27;45440;-75
2022/10/28 03:18:59;;;;;;;;;11.33;7.67;;;;;;;;5054584;28;74172;-74
2022/10/28 03:21:24;;;;;;;;;9.33;7.00;;;;;;;;5052820;28;46696;-75
2022/10/28 03:23:49;;;;;;;;;12.67;10.33;;;;;;;;5072800;28;46462;-73
2022/10/28 03:26:15;;;;;;;;;6.33;6.33;;;;;;;;5053373;28;45315;-74
2022/10/28 03:28:40;;;;;;;;;11.33;7.00;;;;;;;;5076314;28;45465;-76
2022/10/28 03:31:05;;;;;;;;;8.67;7.00;;;;;;;;5059948;28;45348;-75
2022/10/28 03:33:31;;;;;;;;;10.00;7.00;;;;;;;;5083508;27;45374;-75
2022/10/28 03:35:56;;;;;;;;;6.67;6.00;;;;;;;;5059631;28;45823;-74
2022/10/28 03:38:21;;;;;;;;;6.67;3.33;;;;;;;;5059646;28;45787;-74
2022/10/28 03:40:47;;;;;;;;;8.00;8.00;;;;;;;;5073997;27;46455;-75
2022/10/28 03:43:13;;;;;;;;;12.33;5.67;;;;;;;;5072856;28;45548;-78
2022/10/28 03:45:38;;;;;;;;;10.67;6.33;;;;;;;;5074597;28;45512;-74
2022/10/28 03:48:03;;;;;;;;;9.67;8.00;;;;;;;;5058755;28;46596;-73
2022/10/28 03:50:29;;;;;;;;;10.33;6.67;;;;;;;;5076107;28;46058;-76
2022/10/28 03:52:54;;;;;;;;;10.67;7.67;;;;;;;;5089201;27;45641;-75
2022/10/28 03:55:19;;;;;;;;;13.67;7.67;;;;;;;;5043918;28;45368;-76
2022/10/28 03:57:44;;;;;;;;;8.33;6.33;;;;;;;;5071890;28;45531;-74
2022/10/28 04:00:10;;;;;;;;;8.67;8.00;;;;;;;;5077532;28;45449;-75
2022/10/28 04:02:35;;;;;;;;;12.67;9.33;;;;;;;;5074148;28;45650;-77
2022/10/28 04:05:00;;;;;;;;;11.00;8.33;;;;;;;;5077760;28;45421;-75
2022/10/28 04:07:26;;;;;;;;;11.33;8.33;;;;;;;;5070207;28;45582;-74
2022/10/28 04:09:51;;;;;;;;;9.67;8.00;;;;;;;;5076165;28;45437;-77
2022/10/28 04:12:16;;;;;;;;;9.00;7.33;;;;;;;;5073804;28;45443;-76
2022/10/28 04:14:42;;;;;;;;;11.33;10.33;;;;;;;;5080909;28;45741;-75
2022/10/28 04:17:07;;;;;;;;;9.00;8.67;;;;;;;;5075093;28;45405;-74
2022/10/28 04:19:32;;;;;;;;;13.00;8.33;;;;;;;;5078309;28;45743;-73
2022/10/28 04:21:58;;;;;;;;;6.67;5.00;;;;;;;;5075273;27;45542;-74
2022/10/28 04:24:23;;;;;;;;;8.00;6.67;;;;;;;;5077904;27;45352;-74
2022/10/28 04:26:48;;;;;;;;;8.00;7.33;;;;;;;;5075876;27;45360;-75
2022/10/28 04:29:13;;;;;;;;;8.33;7.00;;;;;;;;5070723;28;45704;-74
2022/10/28 04:31:38;;;;;;;;;7.67;7.33;;;;;;;;5074205;28;45266;-73
2022/10/28 04:34:04;;;;;;;;;10.33;7.00;;;;;;;;5072989;28;45684;-74
2022/10/28 04:36:29;;;;;;;;;12.00;9.00;;;;;;;;5081223;27;45634;-75
2022/10/28 04:38:54;;;;;;;;;9.67;7.67;;;;;;;;5071184;28;45874;-75
2022/10/28 04:41:19;;;;;;;;;11.67;8.67;;;;;;;;5074222;28;45351;-75
2022/10/28 04:43:45;;;;;;;;;4.67;4.33;;;;;;;;5069441;28;45356;-73
2022/10/28 04:46:10;;;;;;;;;8.33;6.00;;;;;;;;5065907;28;45351;-76
2022/10/28 04:48:35;;;;;;;;;10.67;8.33;;;;;;;;5058689;28;45501;-74
2022/10/28 04:51:01;;;;;;;;;8.67;6.00;;;;;;;;5058174;28;45598;-74
2022/10/28 04:53:26;;;;;;;;;11.33;8.67;;;;;;;;5060814;28;45646;-73
2022/10/28 04:55:55;;;;;;;;;11.33;7.67;;;;;;;;5054059;28;45809;-75
2022/10/28 04:58:21;;;;;;;;;7.00;7.00;;;;;;;;5075905;28;46642;-76
2022/10/28 05:00:46;;;;;;;;;8.67;7.00;;;;;;;;5075695;28;45401;-75
2022/10/28 05:03:12;;;;;;;;;7.00;6.00;;;;;;;;5066141;28;45325;-75
2022/10/28 05:05:37;;;;;;;;;5.33;5.33;;;;;;;;5060561;28;45864;-74
2022/10/28 05:08:02;;;;;;;;;7.67;5.33;;;;;;;;5050841;28;48180;-73
2022/10/28 05:10:28;;;;;;;;;10.67;6.00;;;;;;;;5072613;28;45763;-73
2022/10/28 05:12:54;;;;;;;;;7.33;7.00;;;;;;;;5082180;28;45076;-70
2022/10/28 05:15:19;;;;;;;;;9.00;5.67;;;;;;;;5088601;28;45200;-72
2022/10/28 05:17:45;;;;;;;;;9.00;6.33;;;;;;;;5071684;28;46564;-71
2022/10/28 05:20:12;;;;;;;;;5.67;5.67;;;;;;;;5073582;28;45444;-73
2022/10/28 05:22:43;;;;;;;;;5.00;5.00;;;;;;;;5082738;28;45677;-74
2022/10/28 05:25:08;;;;;;;;;6.33;6.33;;;;;;;;5074879;28;45519;-74
2022/10/28 05:27:34;;;;;;;;;5.00;5.00;;;;;;;;5058164;28;47641;-75
2022/10/28 05:29:59;;;;;;;;;7.00;6.00;;;;;;;;5077363;28;45540;-75
2022/10/28 05:32:24;;;;;;;;;8.33;7.00;;;;;;;;5074983;28;45365;-74
2022/10/28 05:34:50;;;;;;;;;5.67;5.67;;;;;;;;5064159;28;45810;-74
2022/10/28 05:37:15;;;;;;;;;9.00;5.67;;;;;;;;5051071;28;46613;-73
2022/10/28 05:39:40;;;;;;;;;9.00;7.00;;;;;;;;5060445;28;45712;-73
2022/10/28 05:42:05;;;;;;;;;7.33;5.67;;;;;;;;5064158;27;46444;-72
2022/10/28 05:44:31;;;;;;;;;10.00;7.67;;;;;;;;5061745;28;45710;-72
2022/10/28 05:46:56;;;;;;;;;7.67;6.00;;;;;;;;5066366;27;45929;-72
2022/10/28 05:49:21;;;;;;;;;10.67;6.00;;;;;;;;5065401;27;45484;-74
2022/10/28 05:51:47;;;;;;;;;6.67;6.00;;;;;;;;5059760;28;45512;-72
2022/10/28 05:54:12;;;;;;;;;4.67;4.00;;;;;;;;5046243;28;45702;-75
2022/10/28 05:56:37;;;;;;;;;9.00;6.50;;;;;;;;5065296;27;46265;-72
2022/10/28 05:59:03;;;;;;;;;6.00;5.00;;;;;;;;5066335;28;45451;-73
2022/10/28 06:01:28;;;;;;;;;7.33;6.33;;;;;;;;5064505;27;45567;-73
2022/10/28 06:03:53;;;;;;;;;7.33;5.67;;;;;;;;5065771;28;45729;-73
2022/10/28 06:06:19;;;;;;;;;7.33;5.00;;;;;;;;5064237;27;46291;-73
2022/10/28 06:08:45;;;;;;;;;5.00;2.00;;;;;;;;5071735;28;45596;-77
2022/10/28 06:11:10;;;;;;;;;10.67;6.00;;;;;;;;5064408;27;45717;-75
2022/10/28 06:13:35;;;;;;;;;9.00;5.00;;;;;;;;5042716;28;45962;-73
2022/10/28 06:16:00;;;;;;;;;7.33;6.33;;;;;;;;5065948;28;45979;-72
2022/10/28 06:18:26;;;;;;;;;6.67;6.67;;;;;;;;5047632;28;45947;-73
2022/10/28 06:20:55;;;;;;;;;8.67;6.67;;;;;;;;5063383;28;45783;-75
2022/10/28 06:23:20;;;;;;;;;5.25;4.00;;;;;;;;5064981;28;45450;-74
2022/10/28 06:25:45;;;;;;;;;7.67;3.33;;;;;;;;5068387;28;46391;-74
2022/10/28 06:28:11;;;;;;;;;4.00;3.33;;;;;;;;5048013;28;45947;-74
2022/10/28 06:30:36;;;;;;;;;10.00;5.33;;;;;;;;5065286;28;45412;-74
2022/10/28 06:33:01;;;;;;;;;11.33;6.33;;;;;;;;5062693;28;45709;-73
2022/10/28 06:35:27;;;;;;;;;8.33;6.33;;;;;;;;5061225;28;45885;-74
2022/10/28 06:37:53;;;;;;;;;9.33;6.33;;;;;;;;5044811;28;45704;-73
2022/10/28 06:40:18;;;;;;;;;5.00;5.00;;;;;;;;5067484;28;45327;-73
2022/10/28 06:42:43;;;;;;;;;5.33;5.33;;;;;;;;5048798;28;45937;-75
2022/10/28 06:45:09;;;;;;;;;8.33;6.33;;;;;;;;5046927;28;46330;-73
2022/10/28 06:47:34;;;;;;;;;4.33;4.33;;;;;;;;5060796;27;45876;-73
2022/10/28 06:49:59;;;;;;;;;7.67;7.33;;;;;;;;5062332;27;45856;-76
2022/10/28 06:52:24;;;;;;;;;11.00;6.00;;;;;;;;5059130;28;45524;-74
2022/10/28 06:54:50;;;;;;;;;8.33;5.67;;;;;;;;5055424;28;45623;-74
2022/10/28 06:57:15;;;;;;;;;7.33;7.00;;;;;;;;5056198;28;45880;-73
2022/10/28 06:59:41;;;;;;;;;7.00;7.00;;;;;;;;5067094;28;45751;-73
2022/10/28 07:02:08;;;;;;;;;9.00;7.00;;;;;;;;5060286;28;45733;-73
2022/10/28 07:04:33;;;;;;;;;5.67;5.00;;;;;;;;5070653;28;46601;-73
2022/10/28 07:06:59;;;;;;;;;11.00;5.67;;;;;;;;5070306;28;45813;-72
2022/10/28 07:09:24;;;;;;;;;7.00;5.67;;;;;;;;5078698;28;45765;-72
2022/10/28 07:11:49;;;;;;;;;8.67;5.00;;;;;;;;5070970;27;45566;-73
2022/10/28 07:14:15;;;;;;;;;7.33;7.33;;;;;;;;5070328;28;46866;-72
2022/10/28 07:16:41;;;;;;;;;8.67;8.67;;;;;;;;5061015;28;45428;-73
2022/10/28 07:19:06;;;;;;;;;4.67;4.67;;;;;;;;5071424;27;45677;-72
2022/10/28 07:21:31;;;;;;;;;11.67;8.67;;;;;;;;5074531;27;45663;-76
2022/10/28 07:23:56;;;;;;;;;7.33;4.00;;;;;;;;5074498;28;45678;-75
2022/10/28 07:26:22;;;;;;;;;7.00;7.00;;;;;;;;5080129;27;45314;-73
2022/10/28 07:28:47;;;;;;;;;7.67;7.33;;;;;;;;5056222;28;45707;-72
2022/10/28 07:31:13;;;;;;;;;12.00;5.33;;;;;;;;5067262;28;46145;-73
2022/10/28 07:33:38;;;;;;;;;7.67;6.67;;;;;;;;5071904;28;46173;-74
2022/10/28 07:36:04;;;;;;;;;7.00;6.33;;;;;;;;5075761;28;45952;-72
2022/10/28 07:38:29;;;;;;;;;6.67;6.00;;;;;;;;5069042;28;45412;-73
2022/10/28 07:40:55;;;;;;;;;11.33;7.00;;;;;;;;5067073;27;45910;-72
2022/10/28 07:43:20;;;;;;;;;8.00;6.00;;;;;;;;5063000;28;46634;-74
2022/10/28 07:45:46;;;;;;;;;4.75;3.25;;;;;;;;5061461;28;45697;-73
2022/10/28 07:48:11;;;;;;;;;7.25;3.00;;;;;;;;5065079;28;45801;-74
2022/10/28 07:50:36;;;;;;;;;6.50;6.00;;;;;;;;5054562;28;45937;-71
2022/10/28 07:53:01;;;;;;;;;4.75;4.75;;;;;;;;5060210;27;45813;-73
2022/10/28 07:55:27;;;;;;;;;8.00;7.00;;;;;;;;5059068;28;45668;-72
2022/10/28 07:57:52;;;;;;;;;5.75;4.75;;;;;;;;5061052;28;45827;-74
2022/10/28 08:00:17;;;;;;;;;6.00;5.00;;;;;;;;5064011;28;45918;-72
2022/10/28 08:02:43;;;;;;;;;9.00;5.75;;;;;;;;5063840;28;46057;-72
2022/10/28 08:05:08;;;;;;;;;9.00;6.25;;;;;;;;5070513;28;45466;-74
2022/10/28 08:07:33;;;;;;;;;4.00;3.75;;;;;;;;5076646;28;45603;-73
2022/10/28 08:09:58;;;;;;;;;8.00;6.75;;;;;;;;5069950;28;45549;-75
2022/10/28 08:12:24;;;;;;;;;8.00;7.50;;;;;;;;5075930;28;46336;-75
2022/10/28 08:14:49;;;;;;;;;8.50;6.25;;;;;;;;5063606;28;45765;-71
2022/10/28 08:17:14;;;;;;;;;7.25;6.25;;;;;;;;5039261;28;45540;-71
2022/10/28 08:19:40;;;;;;;;;6.25;6.25;;;;;;;;5068633;28;45722;-73
2022/10/28 08:22:06;;;;;;;;;6.25;5.00;;;;;;;;5072753;28;45878;-73
2022/10/28 08:24:31;;;;;;;;;7.25;5.75;;;;;;;;5073278;28;45712;-73
2022/10/28 08:26:56;;;;;;;;;11.00;7.00;;;;;;;;5069061;28;45489;-73
2022/10/28 08:29:22;;;;;;;;;4.00;4.00;;;;;;;;5070103;28;45886;-73
2022/10/28 08:31:47;;;;;;;;;8.50;6.00;;;;;;;;5043411;28;47723;-71
2022/10/28 08:34:12;;;;;;;;;11.25;6.75;;;;;;;;5067071;28;45426;-72
2022/10/28 08:36:38;;;;;;;;;9.00;4.75;;;;;;;;5071246;27;45633;-72
2022/10/28 08:39:03;;;;;;;;;6.75;4.50;;;;;;;;5068714;27;45908;-72
2022/10/28 08:41:28;;;;;;;;;6.75;5.25;;;;;;;;5065061;28;45440;-73
2022/10/28 08:44:05;;;;;;;;;7.00;6.25;;;;;;;;5070857;28;45341;-72
2022/10/28 08:46:36;;;;;;;;;11.25;5.50;;;;;;;;5075694;28;45374;-73
2022/10/28 08:49:02;;;;;;;;;9.50;6.25;;;;;;;;5064602;28;45338;-73
2022/10/28 08:51:50;;;;;;;;;8.00;6.75;;;;;;;;5065996;28;45693;-71
2022/10/28 08:54:25;;;;;;;;;8.00;6.75;;;;;;;;5056885;28;45748;-72
2022/10/28 08:56:53;;;;;;;;;8.00;5.25;;;;;;;;5064991;28;45529;-75
2022/10/28 08:59:22;;;;;;;;;7.75;4.50;;;;;;;;5059246;28;45925;-73
2022/10/28 09:01:50;;;;;;;;;10.50;7.00;;;;;;;;5059784;28;45869;-74
2022/10/28 09:04:32;;;;;;;;;9.75;5.75;;;;;;;;5062064;27;46654;-71
2022/10/28 09:06:58;;;;;;;;;11.00;6.00;;;;;;;;5041660;28;46364;-72
2022/10/28 09:09:23;;;;;;;;;5.50;5.50;;;;;;;;5060372;28;45641;-73
2022/10/28 09:11:56;;;;;;;;;6.25;6.00;;;;;;;;5059325;28;45958;-74
2022/10/28 09:14:21;;;;;;;;;8.25;7.25;;;;;;;;5059080;28;45868;-72
2022/10/28 09:16:48;;;;;;;;;8.25;6.00;;;;;;;;5063940;28;45824;-74
2022/10/28 09:19:13;;;;;;;;;9.25;7.00;;;;;;;;5047702;28;46023;-72
2022/10/28 09:21:49;;;;;;;;;9.00;6.00;;;;;;;;5045993;28;45845;-75
2022/10/28 09:24:19;;;;;;;;;10.00;8.25;;;;;;;;5062187;28;45616;-74
2022/10/28 09:27:02;;;;;;;;;9.75;7.00;;;;;;;;5060199;28;45533;-74
2022/10/28 09:29:35;;;;;;;;;7.25;7.00;;;;;;;;5059026;28;45867;-75
2022/10/28 09:32:06;;;;;;;;;8.25;8.25;;;;;;;;5061790;28;46456;-74
2022/10/28 09:34:52;;;;;;;;;10.00;6.25;;;;;;;;5039010;28;45672;-74
2022/10/28 09:37:18;;;;;;;;;7.75;6.25;;;;;;;;5060671;28;45988;-74
2022/10/28 09:39:48;;;;;;;;;5.50;5.50;;;;;;;;5060317;28;45464;-73
2022/10/28 09:42:17;;;;;;;;;9.00;6.50;;;;;;;;5061775;28;46048;-73
2022/10/28 09:44:47;;;;;;;;;13.75;10.75;;;;;;;;5058842;28;45843;-72
2022/10/28 09:47:20;;;;;;;;;13.00;11.00;;;;;;;;5062466;28;46733;-76
2022/10/28 09:49:46;;;;;;;;;8.75;8.00;;;;;;;;5060568;28;45575;-75
2022/10/28 09:52:21;;;;;;;;;8.00;8.00;;;;;;;;5059385;28;45857;-75
2022/10/28 09:54:51;;;;;;;;;13.25;12.00;;;;;;;;5061000;28;45637;-76
2022/10/28 09:57:16;;;;;;;;;6.75;6.75;;;;;;;;5058733;28;46125;-76
2022/10/28 09:59:42;;;;;;;;;13.50;10.50;;;;;;;;5042660;28;46570;-75
2022/10/28 10:02:23;;;;;;;;;9.00;6.25;;;;;;;;5060382;28;45974;-76
2022/10/28 10:04:49;;;;;;;;;11.75;9.25;;;;;;;;5050834;28;45813;-73
2022/10/28 10:07:20;;;;;;;;;8.75;7.00;;;;;;;;5072747;28;45549;-74
2022/10/28 10:09:45;;;;;;;;;6.25;5.50;;;;;;;;5071780;28;45346;-75
2022/10/28 10:12:11;;;;;;;;;7.50;5.25;;;;;;;;5064955;28;45417;-75
2022/10/28 10:14:42;;;;;;;;;6.75;6.00;;;;;;;;5065464;28;45470;-74
2022/10/28 10:17:13;;;;;;;;;8.25;8.25;;;;;;;;5064383;28;45667;-76
2022/10/28 10:19:58;;;;;;;;;10.75;8.25;;;;;;;;5064526;28;46046;-74
2022/10/28 10:22:31;;;;;;;;;9.75;6.50;;;;;;;;5051978;28;47264;-75
2022/10/28 10:24:57;;;;;;;;;9.75;6.25;;;;;;;;5067984;28;46324;-78
2022/10/28 10:27:24;;;;;;;;;7.00;6.25;;;;;;;;5067999;28;45498;-76
2022/10/28 10:29:51;;;;;;;;;6.25;5.25;;;;;;;;5045910;28;45996;-74
2022/10/28 10:32:18;;;;;;;;;10.75;8.00;;;;;;;;5062351;28;45847;-76
2022/10/28 10:34:46;;;;;;;;;12.25;6.50;;;;;;;;5041341;28;45819;-74
2022/10/28 10:37:19;;;;;;;;;8.50;8.50;;;;;;;;5057023;28;45918;-75
2022/10/28 10:39:44;;;;;;;;;11.00;7.75;;;;;;;;5062437;27;45661;-75
2022/10/28 10:42:19;;;;;;;;;7.25;6.00;;;;;;;;5060220;28;46610;-75
2022/10/28 10:44:45;;;;;;;;;9.25;6.50;;;;;;;;5057873;27;45990;-76
2022/10/28 10:47:12;;;;;;;;;6.00;6.00;;;;;;;;5061653;28;45843;-73
2022/10/28 10:49:37;;;;;;;;;7.50;7.50;;;;;;;;5056754;28;45793;-74
2022/10/28 10:52:06;;;;;;;;;7.75;5.00;;;;;;;;5060294;28;45990;-76
2022/10/28 10:54:32;;;;;;;;;7.50;6.75;;;;;;;;5059001;28;45408;-75
2022/10/28 10:57:08;;;;;;;;;7.25;4.75;;;;;;;;5060574;27;45673;-74
2022/10/28 10:59:33;;;;;;;;;8.00;8.00;;;;;;;;5065189;28;45862;-76
2022/10/28 11:01:59;;;;;;;;;7.75;7.75;;;;;;;;5062632;28;45657;-75
2022/10/28 11:04:25;;;;;;;;;6.00;6.00;;;;;;;;5049971;28;45867;-74
2022/10/28 11:06:53;;;;;;;;;9.25;7.50;;;;;;;;5048322;28;45789;-75
2022/10/28 11:09:21;;;;;;;;;9.25;7.50;;;;;;;;5067908;27;45492;-73
2022/10/28 11:11:46;;;;;;;;;8.25;7.00;;;;;;;;5070238;27;45868;-75
2022/10/28 11:14:12;;;;;;;;;9.75;6.00;;;;;;;;5060084;28;45279;-75
2022/10/28 11:16:52;;;;;;;;;6.50;6.00;;;;;;;;5063706;28;45763;-75
2022/10/28 11:19:28;;;;;;;;;11.00;7.50;;;;;;;;5050579;28;46150;-73
2022/10/28 11:22:05;;;;;;;;;9.00;8.00;;;;;;;;5061295;27;45884;-74
2022/10/28 11:24:33;;;;;;;;;10.00;8.75;;;;;;;;5061495;28;45907;-77
2022/10/28 11:27:17;;;;;;;;;8.00;3.75;;;;;;;;5058499;27;45748;-75
2022/10/28 11:29:44;;;;;;;;;6.50;6.25;;;;;;;;5060245;28;45737;-76
2022/10/28 11:32:10;;;;;;;;;12.75;9.50;;;;;;;;5060998;28;47491;-72
2022/10/28 11:34:53;;;;;;;;;11.50;8.00;;;;;;;;5063380;28;45498;-73
2022/10/28 11:37:41;;;;;;;;;7.50;6.00;;;;;;;;5063028;28;45864;-74
2022/10/28 11:40:26;;;;;;;;;8.75;7.50;;;;;;;;5068011;22;45792;-83
2022/10/28 11:42:51;;;;;;;;;11.50;9.50;;;;;;;;5052707;28;45573;-86
2022/10/28 11:45:26;;;;;;;;;10.00;7.50;;;;;;;;5037252;28;45283;-83
2022/10/28 11:48:06;;;;;;;;;9.50;7.75;;;;;;;;5033779;28;45708;-85
2022/10/28 11:50:51;;;;;;;;;11.50;8.00;;;;;;;;5047390;28;44971;-87
2022/10/28 11:53:19;;;;;;;;;7.00;5.50;;;;;;;;5044792;28;45950;-87
2022/10/28 11:55:57;;;;;;;;;8.25;8.25;;;;;;;;5047686;28;45181;-85
2022/10/28 11:58:32;;;;;;;;;8.75;5.50;;;;;;;;5065272;28;45381;-87
2022/10/28 12:01:12;;;;;;;;;11.25;8.00;;;;;;;;5039083;28;46069;-85
2022/10/28 12:03:48;;;;;;;;;11.00;8.00;;;;;;;;5056186;28;46370;-84
2022/10/28 12:06:37;;;;;;;;;10.25;6.25;;;;;;;;5053019;28;45531;-84
2022/10/28 12:09:08;;;;;;;;;9.25;7.00;;;;;;;;5057464;28;45540;-83
2022/10/28 12:11:34;;;;;;;;;19.00;18.33;;;;;;;;5060915;28;45492;-81
2022/10/28 12:14:15;;;;;;;;;9.25;7.75;;;;;;;;5029978;28;46999;-82
2022/10/28 12:16:54;;;;;;;;;30.67;24.67;;;;;;;;5035338;28;45304;-82
2022/10/28 12:19:31;;;;;;;;;10.75;10.75;;;;;;;;5054766;28;45457;-80
2022/10/28 12:22:09;;;;;;;;;7.75;6.75;;;;;;;;5048086;28;46277;-79
2022/10/28 12:24:36;;;;;;;;;9.25;8.25;;;;;;;;5056179;28;45369;-80
2022/10/28 12:27:12;;;;;;;;;8.75;8.00;;;;;;;;5044233;28;45761;-79
2022/10/28 12:29:45;;;;;;;;;11.00;8.25;;;;;;;;5039618;28;45353;-87
2022/10/28 12:32:53;;;;;;;;;12.00;7.25;;;;;;;;5056957;28;45572;-87
2022/10/28 12:35:32;;;;;;;;;6.25;6.25;;;;;;;;5057133;28;45961;-84
2022/10/28 12:38:23;;;;;;;;;12.33;11.33;;;;;;;;5062593;28;45815;-84
2022/10/28 12:41:05;;;;;;;;;10.75;7.75;;;;;;;;5058115;28;45537;-86
2022/10/28 12:43:37;;;;;;;;;8.75;8.25;;;;;;;;5036073;28;45452;-82
2022/10/28 12:46:03;;;;;;;;;7.75;7.00;;;;;;;;5050872;28;45492;-84
2022/10/28 12:49:07;;;;;;;;;14.50;10.50;;;;;;;;5061567;28;45504;-83
2022/10/28 12:51:42;;;;;;;;;9.00;7.50;;;;;;;;4978837;28;45861;-86
2022/10/28 12:54:28;;;;;;;;;6.50;5.75;;;;;;;;4982895;28;45579;-88
2022/10/28 12:57:03;;;;;;;;;8.00;6.50;;;;;;;;4982434;28;46325;-84
2022/10/28 13:00:15;;;;;;;;;8.00;6.25;;;;;;;;4961127;28;45506;-83
2022/10/28 13:03:14;;;;;;;;;10.75;6.75;;;;;;;;4955665;28;45910;-84
2022/10/28 13:44:13;;;;;;;;;6.00;5.50;;;;;;;;4750773;29;45664;-84
2022/10/28 14:05:05;;;;;;;;;5.50;4.25;;;;;;;;4913410;22;45102;-73
2022/10/28 14:07:31;;;;;;;;;6.75;6.50;;;;;;;;5017111;28;45710;-73
2022/10/28 14:10:15;;;;;;;;;6.25;5.50;;;;;;;;5017111;28;46366;-72
2022/10/28 14:12:43;;;;;;;;;8.75;5.50;;;;;;;;5011628;28;45710;-73
2022/10/28 14:15:14;;;;;;;;;10.00;7.00;;;;;;;;5010783;28;45876;-73
2022/10/28 14:17:40;;;;;;;;;7.75;7.25;;;;;;;;5016515;28;45544;-72
2022/10/28 14:20:26;;;;;;;;;10.75;7.00;;;;;;;;5007596;28;45424;-71
2022/10/28 14:22:53;;;;;;;;;4.00;2.75;;;;;;;;5010201;28;45816;-70
2022/10/28 14:25:37;;;;;;;;;11.50;6.75;;;;;;;;5007308;28;45725;-72
2022/10/28 14:28:02;;;;;;;;;4.75;4.75;;;;;;;;5015845;28;45456;-72
2022/10/28 14:30:27;;;;;;;;;5.75;4.75;;;;;;;;5008177;28;45825;-70
2022/10/28 14:32:58;;;;;;;;;5.25;4.25;;;;;;;;5016184;28;45468;-74
2022/10/28 14:35:43;;;;;;;;;8.75;6.00;;;;;;;;5014323;28;45459;-71
2022/10/28 14:38:14;;;;;;;;;6.50;6.50;;;;;;;;5012934;28;45678;-71
2022/10/28 14:40:50;;;;;;;;;6.25;4.75;;;;;;;;5010597;28;45477;-75
2022/10/28 14:43:15;;;;;;;;;4.25;4.25;;;;;;;;5013181;28;45595;-72
2022/10/28 14:46:04;;;;;;;;;7.50;5.50;;;;;;;;4993383;28;45316;-74
2022/10/28 14:48:40;;;;;;;;;6.00;6.00;;;;;;;;5012339;28;45756;-74
2022/10/28 14:51:08;;;;;;;;;6.25;6.25;;;;;;;;5010288;28;46813;-68
2022/10/28 14:53:34;;;;;;;;;7.25;5.25;;;;;;;;5013171;28;45421;-71
2022/10/28 14:56:02;;;;;;;;;5.50;5.50;;;;;;;;5019689;28;45600;-72
2022/10/28 14:58:29;;;;;;;;;6.00;3.75;;;;;;;;5018690;28;45307;-73
2022/10/28 15:01:13;;;;;;;;;9.00;6.00;;;;;;;;4991322;28;45823;-75
2022/10/28 15:03:40;;;;;;;;;6.00;4.50;;;;;;;;5008579;28;45391;-73
2022/10/28 15:06:24;;;;;;;;;8.00;5.00;;;;;;;;5007595;28;45825;-72
2022/10/28 15:08:50;;;;;;;;;3.50;3.50;;;;;;;;5016809;28;45728;-74
2022/10/28 15:11:16;;;;;;;;;7.25;4.50;;;;;;;;5017226;28;45526;-71
2022/10/28 15:13:41;;;;;;;;;5.00;4.00;;;;;;;;5008308;28;45502;-71
2022/10/28 15:16:17;;;;;;;;;5.00;5.00;;;;;;;;5005752;28;45487;-72
2022/10/28 15:18:45;;;;;;;;;7.50;6.00;;;;;;;;5006933;28;45951;-73
2022/10/28 15:21:12;;;;;;;;;5.25;4.25;;;;;;;;5007406;28;45852;-75
2022/10/28 15:23:38;;;;;;;;;5.00;4.00;;;;;;;;5021537;28;45425;-74
2022/10/28 15:26:07;;;;;;;;;3.75;2.75;;;;;;;;5020099;28;45374;-73
2022/10/28 15:28:32;;;;;;;;;6.00;5.00;;;;;;;;5015807;28;46127;-72
2022/10/28 15:30:58;;;;;;;;;3.75;3.75;;;;;;;;5009436;28;46882;-72
2022/10/28 15:33:49;;;;;;;;;2.25;2.25;;;;;;;;5003874;28;45731;-72
2022/10/28 15:36:16;;;;;;;;;4.00;3.25;;;;;;;;5017090;28;45492;-72
2022/10/28 15:39:02;;;;;;;;;4.75;4.00;;;;;;;;5022492;28;45748;-73
2022/10/28 15:41:27;;;;;;;;;3.00;3.00;;;;;;;;5002814;28;45676;-73
2022/10/28 15:43:57;;;;;;;;;3.75;3.75;;;;;;;;5023085;28;45974;-72
2022/10/28 15:46:23;;;;;;;;;1.25;1.25;;;;;;;;5023880;28;45722;-72
2022/10/28 15:48:56;;;;;;;;;7.25;3.00;;;;;;;;5017636;28;45452;-71
2022/10/28 15:51:21;;;;;;;;;2.50;2.50;;;;;;;;5028918;28;46342;-72
2022/10/28 15:53:52;;;;;;;;;5.00;4.00;;;;;;;;4994479;28;45804;-70
2022/10/28 15:56:25;;;;;;;;;4.50;3.00;;;;;;;;5018222;28;46814;-72
2022/10/28 15:59:03;;;;;;;;;4.25;3.75;;;;;;;;5000943;28;46041;-73
2022/10/28 16:01:34;;;;;;;;;4.75;3.75;;;;;;;;5026992;28;46058;-71
2022/10/28 16:03:59;;;;;;;;;2.50;2.50;;;;;;;;5021657;28;45852;-72
2022/10/28 16:06:24;;;;;;;;;2.25;2.25;;;;;;;;5002985;28;45489;-72